createdAt,value
2019-01-21T00:01:23.161Z,102487.58
2019-01-21T00:03:54.020Z,102493.97
2019-01-21T00:06:24.706Z,102488.31
2019-01-21T00:08:55.313Z,102492.12
2019-01-21T00:11:25.956Z,102490.80
2019-01-21T00:13:56.619Z,102498.05
2019-01-21T00:16:26.912Z,102496.23
2019-01-21T00:18:57.175Z,102500.95
2019-01-21T00:21:27.330Z,102505.56
2019-01-21T00:23:57.858Z,102509.39
2019-01-21T00:26:28.128Z,102511.30
2019-01-21T00:28:58.453Z,102501.69
2019-01-21T00:31:28.670Z,102507.97
2019-01-21T00:33:59.008Z,102502.73
2019-01-21T00:36:29.271Z,102499.22
2019-01-21T00:38:59.520Z,102496.00
2019-01-21T00:41:29.775Z,102496.39
2019-01-21T00:44:00.121Z,102499.45
2019-01-21T00:46:30.409Z,102502.66
2019-01-21T00:49:00.590Z,102497.94
2019-01-21T00:51:30.843Z,102490.01
2019-01-21T00:54:01.069Z,102500.30
2019-01-21T00:56:31.155Z,102497.86
2019-01-21T00:59:01.520Z,102495.66
2019-01-21T01:01:31.798Z,102495.16
2019-01-21T01:04:02.153Z,102489.89
2019-01-21T01:06:32.447Z,102494.42
2019-01-21T01:09:02.645Z,102496.05
2019-01-21T01:11:32.983Z,102495.23
2019-01-21T01:14:03.341Z,102497.50
2019-01-21T01:16:33.603Z,102502.23
2019-01-21T01:19:03.960Z,102494.41
2019-01-21T01:21:34.392Z,102489.53
2019-01-21T01:24:04.633Z,102484.43
2019-01-21T01:26:34.917Z,102483.03
2019-01-21T01:29:05.227Z,102490.30
2019-01-21T01:31:35.551Z,102480.09
2019-01-21T01:34:06.827Z,102485.20
2019-01-21T01:36:37.005Z,102490.16
2019-01-21T01:39:08.927Z,102485.05
2019-01-21T01:41:39.170Z,102484.54
2019-01-21T01:44:09.423Z,102484.00
2019-01-21T01:46:39.789Z,102486.20
2019-01-21T01:49:10.038Z,102483.72
2019-01-21T01:51:40.315Z,102492.16
2019-01-21T01:54:10.561Z,102491.77
2019-01-21T01:56:40.800Z,102494.16
2019-01-21T01:59:11.440Z,102481.25
2019-01-21T02:01:41.668Z,102480.73
2019-01-21T02:04:13.503Z,102485.08
2019-01-21T02:06:43.814Z,102481.78
2019-01-21T02:09:14.131Z,102479.39
2019-01-21T02:11:44.691Z,102477.06
2019-01-21T02:14:14.949Z,102476.14
2019-01-21T02:16:45.215Z,102474.86
2019-01-21T02:19:15.458Z,102466.09
2019-01-21T02:21:45.942Z,102461.36
2019-01-21T02:24:18.129Z,102462.80
2019-01-21T02:27:06.015Z,102459.86
2019-01-21T02:30:31.206Z,102465.23
2019-01-21T02:34:08.605Z,102461.64
2019-01-21T02:37:12.248Z,102454.17
2019-01-21T02:39:53.864Z,102456.11
2019-01-21T02:42:34.568Z,102450.54
2019-01-21T02:45:54.008Z,102451.20
2019-01-21T02:49:22.187Z,102455.18
2019-01-21T02:52:31.339Z,102456.03
2019-01-21T02:55:46.128Z,102457.08
2019-01-21T02:59:21.653Z,102456.66
2019-01-21T03:02:51.204Z,102439.83
2019-01-21T03:06:09.570Z,102440.98
2019-01-21T03:09:47.205Z,102437.81
2019-01-21T03:13:16.491Z,102429.56
2019-01-21T03:16:51.250Z,102427.44
2019-01-21T03:20:05.543Z,102432.58
2019-01-21T03:23:28.268Z,102436.45
2019-01-21T03:26:19.198Z,102430.33
2019-01-21T03:30:02.671Z,102426.56
2019-01-21T03:33:20.014Z,102425.05
2019-01-21T03:36:20.349Z,102418.33
2019-01-21T03:39:35.506Z,102422.16
2019-01-21T03:42:39.016Z,102412.21
2019-01-21T03:45:59.906Z,102403.27
2019-01-21T03:48:45.286Z,102405.56
2019-01-21T03:52:19.145Z,102399.37
2019-01-21T03:55:02.549Z,102399.41
2019-01-21T03:58:27.835Z,102401.48
2019-01-21T04:01:18.630Z,102403.42
2019-01-21T04:04:58.161Z,102402.38
2019-01-21T04:08:04.889Z,102405.83
2019-01-21T04:11:46.400Z,102401.55
2019-01-21T04:15:40.454Z,102405.44
2019-01-21T04:19:07.633Z,102403.16
2019-01-21T04:22:27.163Z,102403.69
2019-01-21T04:25:12.877Z,102394.86
2019-01-21T04:28:07.626Z,102388.86
2019-01-21T04:31:30.698Z,102376.71
2019-01-21T04:34:57.705Z,102384.23
2019-01-21T04:38:13.962Z,102389.25
2019-01-21T04:41:45.112Z,102385.20
2019-01-21T04:45:30.361Z,102388.43
2019-01-21T04:48:54.656Z,102398.41
2019-01-21T04:52:12.744Z,102402.78
2019-01-21T04:55:37.431Z,102420.77
2019-01-21T04:59:11.565Z,102423.71
2019-01-21T05:02:23.948Z,102427.78
2019-01-21T05:05:51.858Z,102420.33
2019-01-21T05:09:35.331Z,102426.72
2019-01-21T05:12:50.703Z,102420.33
2019-01-21T05:16:50.043Z,102417.23
2019-01-21T05:20:13.059Z,102408.03
2019-01-21T05:23:38.974Z,102398.58
2019-01-21T05:26:43.174Z,102398.19
2019-01-21T05:29:52.812Z,102399.88
2019-01-21T05:33:23.386Z,102391.34
2019-01-21T05:36:42.452Z,102396.46
2019-01-21T05:40:29.729Z,102399.16
2019-01-21T05:44:04.712Z,102395.06
2019-01-21T05:47:28.431Z,102397.28
2019-01-21T05:50:53.301Z,102386.82
2019-01-21T05:54:02.159Z,102396.42
2019-01-21T05:57:40.925Z,102390.41
2019-01-21T06:00:33.713Z,102390.03
2019-01-21T06:04:16.355Z,102390.67
2019-01-21T06:07:23.545Z,102394.77
2019-01-21T06:10:14.395Z,102411.39
2019-01-21T06:13:18.644Z,102415.37
2019-01-21T06:16:24.063Z,102424.08
2019-01-21T06:20:06.142Z,102419.50
2019-01-21T06:23:26.381Z,102419.20
2019-01-21T06:26:48.542Z,102421.38
2019-01-21T06:30:28.581Z,102422.66
2019-01-21T06:34:07.615Z,102425.36
2019-01-21T06:37:13.612Z,102423.04
2019-01-21T06:40:31.981Z,102414.09
2019-01-21T06:43:59.867Z,102418.58
2019-01-21T06:47:25.133Z,102418.34
2019-01-21T06:50:42.463Z,102408.64
2019-01-21T06:54:23.889Z,102414.52
2019-01-21T06:58:12.758Z,102416.74
2019-01-21T07:01:41.523Z,102410.36
2019-01-21T07:04:58.291Z,102397.59
2019-01-21T07:08:25.498Z,102405.02
2019-01-21T07:11:42.304Z,102396.07
2019-01-21T07:15:16.627Z,102408.75
2019-01-21T07:18:30.357Z,102395.19
2019-01-21T07:21:45.121Z,102396.84
2019-01-21T07:24:48.727Z,102400.67
2019-01-21T07:28:07.306Z,102402.69
2019-01-21T07:31:10.495Z,102402.69
2019-01-21T07:34:24.342Z,102396.45
2019-01-21T07:37:51.275Z,102392.75
2019-01-21T07:41:05.483Z,102396.84
2019-01-21T07:44:06.677Z,102397.00
2019-01-21T07:47:21.654Z,102405.19
2019-01-21T07:50:59.682Z,102406.91
2019-01-21T07:54:21.594Z,102394.12
2019-01-21T07:58:03.385Z,102400.39
2019-01-21T08:01:10.194Z,102400.14
2019-01-21T08:04:29.696Z,102400.93
2019-01-21T08:08:03.256Z,102395.47
2019-01-21T08:11:32.788Z,102401.73
2019-01-21T08:14:43.562Z,102406.25
2019-01-21T08:18:16.373Z,102399.22
2019-01-21T08:21:23.393Z,102397.30
2019-01-21T08:24:37.848Z,102399.11
2019-01-21T08:27:36.386Z,102400.03
2019-01-21T08:31:30.451Z,102395.83
2019-01-21T08:34:46.058Z,102393.89
2019-01-21T08:38:03.142Z,102395.94
2019-01-21T08:41:32.600Z,102394.05
2019-01-21T08:44:54.313Z,102381.20
2019-01-21T08:48:22.350Z,102383.24
2019-01-21T08:51:36.797Z,102388.86
2019-01-21T08:55:03.450Z,102392.71
2019-01-21T08:58:23.379Z,102382.94
2019-01-21T09:01:46.690Z,102386.64
2019-01-21T09:04:52.540Z,102381.33
2019-01-21T09:08:37.434Z,102390.29
2019-01-21T09:12:12.267Z,102383.19
2019-01-21T09:15:43.726Z,102386.39
2019-01-21T09:19:26.353Z,102388.53
2019-01-21T09:22:38.453Z,102388.09
2019-01-21T09:25:35.377Z,102385.20
2019-01-21T09:29:03.113Z,102389.86
2019-01-21T09:32:26.945Z,102374.61
2019-01-21T09:35:58.248Z,102373.63
2019-01-21T09:39:34.756Z,102374.12
2019-01-21T09:43:26.217Z,102375.39
2019-01-21T09:46:55.740Z,102377.86
2019-01-21T09:49:23.828Z,102363.05
2019-01-21T09:52:05.172Z,102365.89
2019-01-21T09:54:38.526Z,102364.60
2019-01-21T09:57:11.271Z,102356.48
2019-01-21T09:59:41.727Z,102352.23
2019-01-21T10:02:14.574Z,102355.91
2019-01-21T10:04:53.225Z,102345.28
2019-01-21T10:07:34.602Z,102343.94
2019-01-21T10:11:03.585Z,102340.41
2019-01-21T10:14:51.675Z,102332.83
2019-01-21T10:18:36.497Z,102321.85
2019-01-21T10:21:53.081Z,102321.36
2019-01-21T10:25:25.791Z,102324.47
2019-01-21T10:28:42.919Z,102324.56
2019-01-21T10:31:37.632Z,102314.66
2019-01-21T10:34:40.540Z,102316.67
2019-01-21T10:38:09.606Z,102317.09
2019-01-21T10:41:10.201Z,102319.87
2019-01-21T10:44:51.290Z,102326.40
2019-01-21T10:47:57.943Z,102327.21
2019-01-21T10:50:53.080Z,102327.62
2019-01-21T10:54:10.772Z,102323.23
2019-01-21T10:57:34.193Z,102320.55
2019-01-21T11:01:17.911Z,102323.64
2019-01-21T11:04:33.564Z,102326.98
2019-01-21T11:08:02.029Z,102318.77
2019-01-21T11:11:15.410Z,102316.58
2019-01-21T11:15:19.742Z,102315.06
2019-01-21T11:18:38.909Z,102309.20
2019-01-21T11:21:52.126Z,102308.70
2019-01-21T11:25:28.783Z,102303.53
2019-01-21T11:28:34.285Z,102299.05
2019-01-21T11:31:56.801Z,102295.48
2019-01-21T11:35:14.203Z,102289.91
2019-01-21T11:37:59.815Z,102284.33
2019-01-21T11:41:39.547Z,102285.03
2019-01-21T11:45:00.632Z,102280.55
2019-01-21T11:48:33.262Z,102280.55
2019-01-21T11:51:56.398Z,102275.45
2019-01-21T11:55:05.546Z,102269.20
2019-01-21T11:58:23.043Z,102262.79
2019-01-21T12:01:26.097Z,102263.98
2019-01-21T12:04:45.086Z,102254.23
2019-01-21T12:08:20.800Z,102252.61
2019-01-21T12:14:31.171Z,102240.28
2019-01-21T12:18:03.428Z,102237.87
2019-01-21T12:21:29.268Z,102235.34
2019-01-21T12:24:48.025Z,102225.11
2019-01-21T12:28:23.701Z,102223.19
2019-01-21T12:31:52.059Z,102226.14
2019-01-21T12:35:04.107Z,102213.53
2019-01-21T12:38:40.106Z,102210.88
2019-01-21T12:42:19.271Z,102215.79
2019-01-21T12:45:54.540Z,102208.22
2019-01-21T12:49:10.311Z,102212.77
2019-01-21T12:52:23.416Z,102208.75
2019-01-21T12:56:03.586Z,102212.39
2019-01-21T12:59:24.547Z,102209.27
2019-01-21T13:02:53.769Z,102208.13
2019-01-21T13:05:58.255Z,102190.88
2019-01-21T13:09:09.300Z,102190.47
2019-01-21T13:12:58.145Z,102198.02
2019-01-21T13:16:38.165Z,102183.50
2019-01-21T13:20:30.565Z,102179.30
2019-01-21T13:23:39.783Z,102172.77
2019-01-21T13:27:14.459Z,102159.87
2019-01-21T13:30:31.608Z,102161.17
2019-01-21T13:33:39.653Z,102158.23
2019-01-21T13:37:01.753Z,102149.30
2019-01-21T13:40:20.994Z,102156.08
2019-01-21T13:43:31.998Z,102158.20
2019-01-21T13:47:04.102Z,102152.05
2019-01-21T13:50:37.114Z,102150.52
2019-01-21T13:53:47.606Z,102149.69
2019-01-21T13:57:16.962Z,102139.55
2019-01-21T14:00:38.012Z,102142.45
2019-01-21T14:03:45.669Z,102128.01
2019-01-21T14:07:12.340Z,102136.09
2019-01-21T14:10:50.279Z,102130.03
2019-01-21T14:14:07.029Z,102128.59
2019-01-21T14:17:38.347Z,102133.23
2019-01-21T14:20:44.026Z,102125.78
2019-01-21T14:24:00.483Z,102129.36
2019-01-21T14:27:02.227Z,102127.59
2019-01-21T14:30:26.921Z,102126.13
2019-01-21T14:33:18.090Z,102123.95
2019-01-21T14:37:11.885Z,102121.12
2019-01-21T14:40:15.022Z,102117.55
2019-01-21T14:43:54.904Z,102115.38
2019-01-21T14:47:15.113Z,102111.58
2019-01-21T14:50:31.518Z,102111.91
2019-01-21T14:54:09.316Z,102110.38
2019-01-21T14:57:29.236Z,102106.91
2019-01-21T15:00:49.415Z,102109.09
2019-01-21T15:04:23.653Z,102107.97
2019-01-21T15:07:30.207Z,102106.58
2019-01-21T15:10:46.608Z,102102.08
2019-01-21T15:14:02.636Z,102101.84
2019-01-21T15:17:22.620Z,102097.87
2019-01-21T15:20:21.690Z,102096.89
2019-01-21T15:23:07.040Z,102091.48
2019-01-21T15:26:41.885Z,102090.67
2019-01-21T15:29:56.741Z,102086.88
2019-01-21T15:33:22.903Z,102090.28
2019-01-21T15:37:07.092Z,102086.23
2019-01-21T15:40:03.435Z,102078.28
2019-01-21T15:42:54.643Z,102071.31
2019-01-21T15:46:24.507Z,102066.81
2019-01-21T15:49:38.010Z,102060.09
2019-01-21T15:52:35.755Z,102062.16
2019-01-21T15:55:42.917Z,102050.27
2019-01-21T15:59:10.342Z,102052.52
2019-01-21T16:02:18.700Z,102042.30
2019-01-21T16:05:39.271Z,102039.36
2019-01-21T16:09:11.683Z,102038.19
2019-01-21T16:12:31.397Z,102033.13
2019-01-21T16:15:33.220Z,102035.03
2019-01-21T16:18:34.434Z,102033.42
2019-01-21T16:22:15.544Z,102032.58
2019-01-21T16:25:11.040Z,102027.05
2019-01-21T16:28:40.704Z,102027.91
2019-01-21T16:31:34.640Z,102026.42
2019-01-21T16:34:41.233Z,102029.55
2019-01-21T16:38:07.626Z,102032.55
2019-01-21T16:41:45.635Z,102032.44
2019-01-21T16:44:16.056Z,102025.61
2019-01-21T16:46:48.092Z,102028.95
2019-01-21T16:49:18.351Z,102025.58
2019-01-21T16:51:48.810Z,102027.18
2019-01-21T16:54:19.034Z,102029.66
2019-01-21T16:56:49.366Z,102027.69
2019-01-21T16:59:19.691Z,102032.14
2019-01-21T17:01:50.079Z,102031.42
2019-01-21T17:04:20.787Z,102022.90
2019-01-21T17:06:51.170Z,102022.80
2019-01-21T17:09:21.417Z,102031.05
2019-01-21T17:11:51.829Z,102032.52
2019-01-21T17:14:22.030Z,102031.32
2019-01-21T17:16:52.371Z,102017.19
2019-01-21T17:19:22.782Z,102020.69
2019-01-21T17:21:53.135Z,102017.39
2019-01-21T17:24:23.402Z,102016.68
2019-01-21T17:26:53.772Z,102012.50
2019-01-21T17:29:24.081Z,102016.06
2019-01-21T17:31:54.357Z,102011.20
2019-01-21T17:34:24.615Z,102013.95
2019-01-21T17:36:54.945Z,102011.69
2019-01-21T17:39:25.215Z,102006.05
2019-01-21T17:41:55.581Z,102005.94
2019-01-21T17:44:25.951Z,101997.80
2019-01-21T17:46:58.053Z,101996.44
2019-01-21T17:49:28.279Z,101991.17
2019-01-21T17:51:58.943Z,101991.48
2019-01-21T17:54:34.800Z,101990.50
2019-01-21T17:57:01.352Z,101990.33
2019-01-21T17:59:31.560Z,101985.47
2019-01-21T18:02:02.800Z,101989.24
2019-01-21T18:04:33.160Z,101984.02
2019-01-21T18:07:03.425Z,101983.03
2019-01-21T18:09:33.780Z,101981.23
2019-01-21T18:12:04.151Z,101979.47
2019-01-21T18:14:34.579Z,101986.22
2019-01-21T18:17:04.957Z,101981.53
2019-01-21T18:19:35.264Z,101974.50
2019-01-21T18:22:05.565Z,101973.63
2019-01-21T18:24:37.167Z,101974.81
2019-01-21T18:27:07.564Z,101969.17
2019-01-21T18:29:37.879Z,101968.91
2019-01-21T18:32:09.407Z,101963.64
2019-01-21T18:34:39.578Z,101963.17
2019-01-21T18:37:09.887Z,101963.06
2019-01-21T18:39:40.204Z,101956.92
2019-01-21T18:42:10.806Z,101958.62
2019-01-21T18:44:41.131Z,101954.64
2019-01-21T18:47:12.075Z,101953.53
2019-01-21T18:49:46.884Z,101959.06
2019-01-21T18:52:17.224Z,101950.77
2019-01-21T18:54:53.485Z,101952.55
2019-01-21T18:57:27.873Z,101948.06
2019-01-21T19:00:00.088Z,101948.49
2019-01-21T19:02:30.573Z,101941.73
2019-01-21T19:05:00.888Z,101938.42
2019-01-21T19:07:31.228Z,101938.78
2019-01-21T19:10:01.518Z,101940.83
2019-01-21T19:12:31.788Z,101939.80
2019-01-21T19:15:02.094Z,101940.37
2019-01-21T19:17:32.405Z,101939.08
2019-01-21T19:20:02.777Z,101933.02
2019-01-21T19:22:33.040Z,101934.63
2019-01-21T19:25:03.392Z,101935.86
2019-01-21T19:27:33.772Z,101933.59
2019-01-21T19:30:04.605Z,101935.55
2019-01-21T19:32:34.855Z,101927.07
2019-01-21T19:35:08.622Z,101928.14
2019-01-21T19:37:38.946Z,101929.12
2019-01-21T19:40:13.870Z,101930.98
2019-01-21T19:42:44.181Z,101926.69
2019-01-21T19:45:14.619Z,101927.26
2019-01-21T19:47:45.068Z,101933.40
2019-01-21T19:50:18.887Z,101908.76
2019-01-21T19:52:49.197Z,101922.42
2019-01-21T19:55:30.294Z,101924.45
2019-01-21T19:58:00.578Z,101917.98
2019-01-21T20:00:31.449Z,101920.01
2019-01-21T20:03:01.684Z,101914.33
2019-01-21T20:05:31.973Z,101913.13
2019-01-21T20:08:03.506Z,101909.41
2019-01-21T20:10:33.807Z,101899.73
2019-01-21T20:13:04.137Z,101906.98
2019-01-21T20:15:34.497Z,101899.55
2019-01-21T20:18:04.958Z,101903.42
2019-01-21T20:20:39.166Z,101903.52
2019-01-21T20:23:10.206Z,101899.64
2019-01-21T20:25:40.630Z,101900.84
2019-01-21T20:28:10.975Z,101889.30
2019-01-21T20:30:41.356Z,101888.98
2019-01-21T20:33:13.748Z,101887.28
2019-01-21T20:35:44.034Z,101884.29
2019-01-21T20:38:14.331Z,101887.28
2019-01-21T20:40:44.598Z,101889.87
2019-01-21T20:43:14.898Z,101881.64
2019-01-21T20:45:45.327Z,101883.00
2019-01-21T20:48:15.730Z,101877.04
2019-01-21T20:50:48.640Z,101878.02
2019-01-21T20:53:19.223Z,101869.75
2019-01-21T20:55:49.568Z,101861.13
2019-01-21T20:58:19.824Z,101861.59
2019-01-21T21:00:50.171Z,101854.34
2019-01-21T21:03:20.418Z,101855.72
2019-01-21T21:05:52.153Z,101856.61
2019-01-21T21:08:22.548Z,101854.34
2019-01-21T21:10:52.763Z,101855.62
2019-01-21T21:13:23.799Z,101843.11
2019-01-21T21:15:54.325Z,101846.40
2019-01-21T21:18:24.547Z,101849.80
2019-01-21T21:20:54.626Z,101845.52
2019-01-21T21:23:24.898Z,101845.45
2019-01-21T21:25:55.273Z,101837.61
2019-01-21T21:28:25.431Z,101841.40
2019-01-21T21:30:55.968Z,101835.76
2019-01-21T21:33:26.272Z,101839.13
2019-01-21T21:35:56.559Z,101833.17
2019-01-21T21:38:26.804Z,101838.81
2019-01-21T21:40:57.059Z,101829.45
2019-01-21T21:43:27.219Z,101822.58
2019-01-21T21:45:57.558Z,101821.38
2019-01-21T21:48:31.737Z,101816.30
2019-01-21T21:51:01.334Z,101814.09
2019-01-21T21:53:31.591Z,101810.72
2019-01-21T21:56:02.971Z,101806.84
2019-01-21T21:58:33.296Z,101800.28
2019-01-21T22:01:03.648Z,101796.00
2019-01-21T22:03:33.818Z,101795.67
2019-01-21T22:06:04.527Z,101791.73
2019-01-21T22:08:41.124Z,101788.09
2019-01-21T22:11:18.915Z,101789.38
2019-01-21T22:13:47.688Z,101785.42
2019-01-21T22:16:20.561Z,101780.98
2019-01-21T22:18:50.786Z,101783.56
2019-01-21T22:21:21.079Z,101777.84
2019-01-21T22:23:51.266Z,101774.84
2019-01-21T22:26:21.670Z,101770.81
2019-01-21T22:28:51.954Z,101766.71
2019-01-21T22:31:22.608Z,101765.98
2019-01-21T22:33:52.855Z,101756.28
2019-01-21T22:36:23.194Z,101758.52
2019-01-21T22:38:54.308Z,101760.95
2019-01-21T22:41:24.690Z,101747.71
2019-01-21T22:43:54.926Z,101748.50
2019-01-21T22:46:25.250Z,101748.77
2019-01-21T22:48:55.854Z,101744.06
2019-01-21T22:51:26.053Z,101750.14
2019-01-21T22:53:56.271Z,101741.35
2019-01-21T22:56:26.597Z,101741.28
2019-01-21T22:58:56.835Z,101732.32
2019-01-21T23:01:33.542Z,101740.77
2019-01-21T23:04:03.858Z,101729.50
2019-01-21T23:06:34.116Z,101733.38
2019-01-21T23:09:07.095Z,101733.28
2019-01-21T23:11:37.597Z,101726.91
2019-01-21T23:14:07.955Z,101722.69
2019-01-21T23:16:41.172Z,101723.19
2019-01-21T23:19:11.466Z,101721.08
2019-01-21T23:21:41.709Z,101719.00
2019-01-21T23:24:16.561Z,101721.58
2019-01-21T23:26:45.299Z,101716.00
2019-01-21T23:29:21.017Z,101711.25
2019-01-21T23:31:51.288Z,101707.38
2019-01-21T23:34:23.861Z,101701.23
2019-01-21T23:36:54.184Z,101694.28
2019-01-21T23:39:24.382Z,101688.49
2019-01-21T23:41:58.065Z,101681.05
2019-01-21T23:44:29.251Z,101678.81
2019-01-21T23:47:01.994Z,101677.58
2019-01-21T23:49:32.262Z,101672.33
2019-01-21T23:52:02.575Z,101670.05
2019-01-21T23:54:32.886Z,101669.55
2019-01-21T23:57:03.428Z,101665.90
2019-01-21T23:59:34.159Z,101657.91
